Time;durP1;ratioP1;P1;durP2;ratioP2;P2;SDS_P1;SDS_P2;PMS_P1;PMS_P2;Temp;Humidity;BMP_temperature;BMP_pressure;BME280_temperature;BME280_humidity;BME280_pressure;Samples;Min_cycle;Max_cycle;Signal;HPM_P1;HPM_P2
2023/08/09 00:02:05;;;;;;;1.63;1.52;;;16.30;89.90;;;;;;5055038;28;20025;-69
2023/08/09 00:04:31;;;;;;;1.85;1.67;;;16.30;89.90;;;;;;5067021;28;20051;-69
2023/08/09 00:06:56;;;;;;;1.60;1.50;;;16.20;89.80;;;;;;5064937;28;20403;-70
2023/08/09 00:09:22;;;;;;;2.10;1.73;;;16.20;90.00;;;;;;5062734;28;20479;-69
2023/08/09 00:11:47;;;;;;;1.85;1.60;;;16.20;90.10;;;;;;5054877;28;20082;-69
2023/08/09 00:14:13;;;;;;;1.80;1.70;;;16.20;90.10;;;;;;5067415;28;20029;-69
2023/08/09 00:16:39;;;;;;;1.48;1.35;;;16.20;90.00;;;;;;5053014;28;20024;-69
2023/08/09 00:19:04;;;;;;;2.00;1.70;;;16.20;89.90;;;;;;5069472;28;20032;-69
2023/08/09 00:21:31;;;;;;;1.70;1.60;;;16.20;89.80;;;;;;5053687;28;20032;-69
2023/08/09 00:23:58;;;;;;;1.50;1.38;;;16.20;89.80;;;;;;5066485;28;20025;-69
2023/08/09 00:26:25;;;;;;;1.70;1.60;;;16.20;89.70;;;;;;5061156;28;20028;-69
2023/08/09 00:28:52;;;;;;;1.52;1.42;;;16.10;89.80;;;;;;5066592;28;20115;-69
2023/08/09 00:31:17;;;;;;;1.58;1.35;;;16.10;89.80;;;;;;5067342;28;20033;-70
2023/08/09 00:33:43;;;;;;;2.00;1.80;;;16.10;89.80;;;;;;5063572;28;20040;-70
2023/08/09 00:36:09;;;;;;;1.75;1.60;;;16.10;89.90;;;;;;5056100;28;20040;-69
2023/08/09 00:38:36;;;;;;;2.17;1.70;;;16.10;89.90;;;;;;5061462;28;20016;-70
2023/08/09 00:41:02;;;;;;;2.08;1.80;;;16.10;90.00;;;;;;5064580;28;20148;-69
2023/08/09 00:43:27;;;;;;;2.28;1.73;;;16.00;89.90;;;;;;5064059;28;20020;-70
2023/08/09 00:45:53;;;;;;;1.80;1.70;;;16.00;89.90;;;;;;5064977;28;20044;-70
2023/08/09 00:48:19;;;;;;;1.92;1.77;;;15.90;90.00;;;;;;5054033;28;20063;-69
2023/08/09 00:50:45;;;;;;;2.25;1.90;;;15.90;90.00;;;;;;5070722;28;20083;-70
2023/08/09 00:53:10;;;;;;;2.20;1.85;;;15.90;90.00;;;;;;5071042;28;20029;-70
2023/08/09 00:55:36;;;;;;;2.05;1.85;;;15.90;90.00;;;;;;5067790;28;20495;-70
2023/08/09 00:58:02;;;;;;;2.10;1.90;;;15.90;90.00;;;;;;5072695;28;20115;-69
2023/08/09 01:00:27;;;;;;;2.72;2.17;;;15.90;90.00;;;;;;5070610;28;20021;-70
2023/08/09 01:02:53;;;;;;;2.92;2.38;;;15.80;90.00;;;;;;5063252;28;20108;-69
2023/08/09 01:05:19;;;;;;;3.10;2.50;;;15.80;90.00;;;;;;5061316;28;20021;-69
2023/08/09 01:07:59;;;;;;;2.55;2.35;;;15.80;90.00;;;;;;5059331;28;20546;-69
2023/08/09 01:10:46;;;;;;;2.60;2.40;;;15.80;90.10;;;;;;5064709;28;20024;-71
2023/08/09 01:13:14;;;;;;;4.15;2.65;;;15.80;90.20;;;;;;5064815;28;20108;-70
2023/08/09 01:15:42;;;;;;;3.70;2.90;;;15.90;90.20;;;;;;5057716;28;20043;-70
2023/08/09 01:18:08;;;;;;;3.20;2.78;;;15.90;90.20;;;;;;5057815;28;20025;-69
2023/08/09 01:20:35;;;;;;;4.05;3.65;;;15.90;90.20;;;;;;5053971;28;20464;-69
2023/08/09 01:23:13;;;;;;;5.72;4.53;;;15.90;90.30;;;;;;5058212;28;20017;-69
2023/08/09 01:25:39;;;;;;;5.70;3.88;;;15.90;90.40;;;;;;5067931;28;20446;-70
2023/08/09 01:28:05;;;;;;;5.43;4.30;;;15.90;90.40;;;;;;5063611;28;20092;-69
2023/08/09 01:30:31;;;;;;;4.80;4.07;;;15.90;90.40;;;;;;5064535;28;20056;-71
2023/08/09 01:32:57;;;;;;;3.70;3.30;;;15.90;90.40;;;;;;5061146;28;20071;-70
2023/08/09 01:35:24;;;;;;;5.60;4.65;;;16.00;90.40;;;;;;5066693;28;20021;-69
2023/08/09 01:37:54;;;;;;;6.28;5.35;;;16.00;90.50;;;;;;5064080;28;20369;-72
2023/08/09 01:40:20;;;;;;;6.78;5.80;;;15.90;90.60;;;;;;5059900;28;20055;-68
2023/08/09 01:42:47;;;;;;;6.50;5.65;;;16.00;90.60;;;;;;5068124;28;20078;-71
2023/08/09 01:45:14;;;;;;;8.10;5.90;;;15.90;90.70;;;;;;5052246;28;20029;-70
2023/08/09 01:47:41;;;;;;;6.90;5.45;;;15.90;91.00;;;;;;5053879;28;20029;-70
2023/08/09 01:50:21;;;;;;;5.75;4.00;;;15.90;90.70;;;;;;5070048;28;20032;-70
2023/08/09 01:52:47;;;;;;;6.45;4.63;;;16.00;90.80;;;;;;5067429;28;20116;-70
2023/08/09 01:55:17;;;;;;;7.43;6.03;;;16.00;90.70;;;;;;5052253;28;20458;-69
2023/08/09 01:57:46;;;;;;;6.85;5.85;;;16.00;90.70;;;;;;5052956;28;20059;-70
2023/08/09 02:00:16;;;;;;;5.65;4.78;;;16.00;90.70;;;;;;5071456;28;20028;-70
2023/08/09 02:02:42;;;;;;;8.25;6.20;;;16.10;90.80;;;;;;5067580;28;20048;-70
2023/08/09 02:05:09;;;;;;;6.43;5.50;;;16.00;90.80;;;;;;5051895;28;20104;-71
2023/08/09 02:07:34;;;;;;;7.90;5.97;;;16.10;90.80;;;;;;5053235;28;20029;-71
2023/08/09 02:10:00;;;;;;;11.88;7.20;;;16.00;90.90;;;;;;5068232;28;20094;-71
2023/08/09 02:12:25;;;;;;;8.18;6.07;;;16.00;91.00;;;;;;5052247;28;20495;-69
2023/08/09 02:14:51;;;;;;;17.65;6.32;;;16.00;91.10;;;;;;5050573;28;20078;-69
2023/08/09 02:17:17;;;;;;;6.85;5.65;;;16.00;91.10;;;;;;5052360;28;20804;-70
2023/08/09 02:19:42;;;;;;;9.18;6.35;;;16.00;91.10;;;;;;5051720;28;20053;-70
2023/08/09 02:22:10;;;;;;;8.07;5.93;;;16.00;91.10;;;;;;5060221;28;20383;-69
2023/08/09 02:24:36;;;;;;;6.03;4.90;;;16.00;91.20;;;;;;5071278;28;20484;-70
2023/08/09 02:27:01;;;;;;;7.97;6.20;;;16.00;91.20;;;;;;5064109;28;20025;-70
2023/08/09 02:29:27;;;;;;;9.05;6.80;;;16.00;91.20;;;;;;5064317;28;20032;-70
2023/08/09 02:31:52;;;;;;;12.02;6.03;;;16.00;91.30;;;;;;5062245;28;20040;-70
2023/08/09 02:34:19;;;;;;;6.80;5.30;;;16.00;91.30;;;;;;5051192;28;20024;-69
2023/08/09 02:36:46;;;;;;;7.75;6.25;;;16.00;91.20;;;;;;5057357;28;20025;-70
2023/08/09 02:39:12;;;;;;;7.50;5.78;;;16.00;91.20;;;;;;5060447;28;20108;-70
2023/08/09 02:41:41;;;;;;;9.48;6.47;;;16.00;91.20;;;;;;5069633;28;20104;-68
2023/08/09 02:44:07;;;;;;;11.30;7.30;;;16.00;91.30;;;;;;5070980;28;20032;-71
2023/08/09 02:46:33;;;;;;;10.90;6.47;;;16.00;91.50;;;;;;5061535;28;20016;-70
2023/08/09 02:48:58;;;;;;;8.93;5.95;;;16.00;91.60;;;;;;5062013;28;20479;-70
2023/08/09 02:51:24;;;;;;;14.40;5.28;;;16.00;91.60;;;;;;5059294;28;20572;-70
2023/08/09 02:54:00;;;;;;;13.10;6.25;;;15.90;91.50;;;;;;5051365;28;20035;-69
2023/08/09 02:56:26;;;;;;;19.67;5.45;;;15.90;91.90;;;;;;5050781;28;20025;-70
2023/08/09 02:58:52;;;;;;;12.13;5.68;;;15.90;91.70;;;;;;5063342;28;20025;-70
2023/08/09 03:01:21;;;;;;;11.90;4.28;;;15.90;91.70;;;;;;5067038;28;20495;-70
2023/08/09 03:03:50;;;;;;;8.90;5.18;;;15.90;91.70;;;;;;5059453;28;20025;-70
2023/08/09 03:06:23;;;;;;;11.73;5.75;;;15.90;91.70;;;;;;5052925;28;20020;-70
2023/08/09 03:08:50;;;;;;;11.95;6.35;;;15.90;91.80;;;;;;5056117;28;20034;-70
2023/08/09 03:11:18;;;;;;;10.90;5.68;;;15.90;91.80;;;;;;5066786;28;20024;-70
2023/08/09 03:13:44;;;;;;;9.88;5.80;;;15.90;91.80;;;;;;5061931;28;20059;-70
2023/08/09 03:16:09;;;;;;;6.70;4.43;;;15.90;91.80;;;;;;5057022;28;20028;-70
2023/08/09 03:18:35;;;;;;;18.55;5.40;;;16.00;91.80;;;;;;5061909;28;20075;-69
2023/08/09 03:21:01;;;;;;;16.30;5.13;;;16.00;91.70;;;;;;5070465;28;20391;-69
2023/08/09 03:23:26;;;;;;;9.52;4.75;;;16.00;91.70;;;;;;5065591;28;20024;-70
2023/08/09 03:25:52;;;;;;;14.05;5.25;;;16.00;91.70;;;;;;5069409;28;20035;-69
2023/08/09 03:28:17;;;;;;;10.63;6.22;;;16.00;91.70;;;;;;5053747;28;20024;-69
2023/08/09 03:30:43;;;;;;;11.52;5.55;;;16.00;91.80;;;;;;5051741;28;20158;-69
2023/08/09 03:33:09;;;;;;;15.25;5.22;;;16.00;91.80;;;;;;5055560;28;20407;-69
2023/08/09 03:35:34;;;;;;;12.48;5.32;;;16.00;91.80;;;;;;5065475;28;20025;-70
2023/08/09 03:38:00;;;;;;;10.52;5.38;;;16.10;91.90;;;;;;5068363;28;20036;-68
2023/08/09 03:40:26;;;;;;;7.45;4.47;;;16.10;91.90;;;;;;5068110;28;20024;-68
2023/08/09 03:42:51;;;;;;;15.93;5.28;;;16.10;91.80;;;;;;5065832;28;20376;-68
2023/08/09 03:45:17;;;;;;;22.15;5.20;;;16.10;91.80;;;;;;5062378;28;20480;-70
2023/08/09 03:47:43;;;;;;;18.13;5.80;;;16.10;91.80;;;;;;5053388;28;20057;-68
2023/08/09 03:50:10;;;;;;;9.20;4.00;;;16.10;91.80;;;;;;5068027;28;20021;-68
2023/08/09 03:52:36;;;;;;;11.77;5.00;;;16.10;91.80;;;;;;5066880;28;20032;-68
2023/08/09 03:55:03;;;;;;;14.20;5.28;;;16.10;91.90;;;;;;5059009;28;20038;-69
2023/08/09 03:57:28;;;;;;;11.73;4.72;;;16.10;92.00;;;;;;5057350;28;20024;-68
2023/08/09 03:59:54;;;;;;;10.07;4.97;;;16.00;92.00;;;;;;5064547;28;20093;-69
2023/08/09 04:02:21;;;;;;;12.65;5.00;;;16.00;92.10;;;;;;5062973;28;21146;-69
2023/08/09 04:04:47;;;;;;;39.50;6.60;;;16.00;92.10;;;;;;5064183;28;20032;-69
2023/08/09 04:07:13;;;;;;;10.77;5.07;;;16.00;92.20;;;;;;5060751;28;20364;-70
2023/08/09 04:09:38;;;;;;;13.85;4.40;;;16.00;92.30;;;;;;5068349;28;20063;-70
2023/08/09 04:12:04;;;;;;;15.45;5.57;;;16.00;92.20;;;;;;5064780;28;20021;-70
2023/08/09 04:14:30;;;;;;;10.32;4.90;;;16.00;92.20;;;;;;5061942;28;20024;-69
2023/08/09 04:16:58;;;;;;;8.85;4.55;;;16.00;92.20;;;;;;5061127;28;20031;-70
2023/08/09 04:19:26;;;;;;;28.58;4.82;;;16.00;92.20;;;;;;5054238;28;20028;-70
2023/08/09 04:21:53;;;;;;;11.68;4.65;;;16.10;92.20;;;;;;5060932;28;20528;-70
2023/08/09 04:24:19;;;;;;;20.95;5.25;;;16.10;92.20;;;;;;5057582;28;20031;-69
2023/08/09 04:26:45;;;;;;;10.25;4.45;;;16.10;92.20;;;;;;5067055;28;20031;-69
2023/08/09 04:29:11;;;;;;;9.45;3.88;;;16.10;92.20;;;;;;5058926;28;20399;-69
2023/08/09 04:31:36;;;;;;;12.18;4.50;;;16.20;92.20;;;;;;5070185;28;20032;-69
2023/08/09 04:34:02;;;;;;;9.80;4.25;;;16.20;92.20;;;;;;5070826;28;20032;-69
2023/08/09 04:36:28;;;;;;;4.85;4.03;;;16.20;92.20;;;;;;5062355;28;20052;-69
2023/08/09 04:38:54;;;;;;;7.13;4.22;;;16.30;92.20;;;;;;5060954;28;20078;-69
2023/08/09 04:41:19;;;;;;;6.03;4.45;;;16.30;92.20;;;;;;5071437;28;20039;-69
2023/08/09 04:43:46;;;;;;;8.65;4.60;;;16.30;92.20;;;;;;5070404;28;20103;-70
2023/08/09 04:46:12;;;;;;;5.75;3.63;;;16.40;92.10;;;;;;5053190;28;20021;-70
2023/08/09 04:48:39;;;;;;;9.13;4.20;;;16.40;92.10;;;;;;5057606;28;20033;-70
2023/08/09 04:51:05;;;;;;;10.00;4.57;;;16.50;92.00;;;;;;5053416;28;20021;-69
2023/08/09 04:53:31;;;;;;;9.82;4.85;;;16.40;91.90;;;;;;5053286;28;20029;-69
2023/08/09 04:55:56;;;;;;;9.70;4.25;;;16.50;91.90;;;;;;5053549;28;20044;-69
2023/08/09 04:58:22;;;;;;;5.63;4.38;;;16.50;91.80;;;;;;5064673;28;20073;-70
2023/08/09 05:00:48;;;;;;;6.60;4.43;;;16.50;91.80;;;;;;5055430;28;20028;-70
2023/08/09 05:03:13;;;;;;;6.28;4.20;;;16.50;91.80;;;;;;5054226;28;20025;-70
2023/08/09 05:05:39;;;;;;;4.82;3.67;;;16.50;91.70;;;;;;5053701;28;20033;-70
2023/08/09 05:08:05;;;;;;;8.60;4.32;;;16.50;91.80;;;;;;5062727;28;20094;-70
2023/08/09 05:10:30;;;;;;;5.43;4.05;;;16.50;91.70;;;;;;5071356;28;20016;-69
2023/08/09 05:12:56;;;;;;;9.27;5.10;;;16.60;91.70;;;;;;5059440;28;20082;-70
2023/08/09 05:15:21;;;;;;;7.70;5.00;;;16.50;91.70;;;;;;5055527;28;20029;-69
2023/08/09 05:17:47;;;;;;;5.60;4.30;;;16.60;91.70;;;;;;5054654;28;20079;-70
2023/08/09 05:20:13;;;;;;;8.73;4.88;;;16.60;91.80;;;;;;5052936;28;20083;-70
2023/08/09 05:22:38;;;;;;;7.85;4.97;;;16.60;92.00;;;;;;5062644;28;20094;-70
2023/08/09 05:25:04;;;;;;;7.78;4.20;;;16.70;91.60;;;;;;5059578;28;20036;-70
2023/08/09 05:27:30;;;;;;;11.10;5.55;;;16.70;91.70;;;;;;5065691;28;20029;-71
2023/08/09 05:29:56;;;;;;;9.25;5.28;;;16.70;91.60;;;;;;5065579;28;20025;-71
2023/08/09 05:32:22;;;;;;;18.27;5.97;;;16.80;91.60;;;;;;5060107;28;20094;-70
2023/08/09 05:34:47;;;;;;;11.13;6.70;;;16.70;91.50;;;;;;5058460;28;20071;-70
2023/08/09 05:37:13;;;;;;;9.30;5.35;;;16.70;91.60;;;;;;5058193;28;20109;-70
2023/08/09 05:39:38;;;;;;;9.50;6.72;;;16.70;91.60;;;;;;5057919;28;20032;-71
2023/08/09 05:42:05;;;;;;;13.35;7.03;;;16.70;91.60;;;;;;5052195;28;20022;-70
2023/08/09 05:44:31;;;;;;;10.90;7.75;;;16.70;91.60;;;;;;5053581;28;20024;-70
2023/08/09 05:46:56;;;;;;;11.65;8.88;;;16.60;91.70;;;;;;5060443;28;20025;-70
2023/08/09 05:49:23;;;;;;;10.40;7.88;;;16.50;91.80;;;;;;5067915;28;20151;-69
2023/08/09 05:51:48;;;;;;;11.88;7.75;;;16.50;92.00;;;;;;5067382;28;20021;-70
2023/08/09 05:54:14;;;;;;;16.00;8.40;;;16.50;92.10;;;;;;5064406;28;20031;-71
2023/08/09 05:56:39;;;;;;;13.23;8.68;;;16.60;92.10;;;;;;5066947;28;20025;-71
2023/08/09 05:59:05;;;;;;;11.35;7.80;;;16.60;92.00;;;;;;5067998;28;20172;-71
2023/08/09 06:01:31;;;;;;;11.93;7.97;;;16.70;92.00;;;;;;5066325;28;20081;-71
2023/08/09 06:03:57;;;;;;;11.73;8.05;;;16.70;92.00;;;;;;5068748;28;20021;-71
2023/08/09 06:06:24;;;;;;;13.40;8.77;;;16.70;92.00;;;;;;5062495;28;20028;-71
2023/08/09 06:08:49;;;;;;;12.75;7.72;;;16.70;92.00;;;;;;5069704;28;20103;-71
2023/08/09 06:11:15;;;;;;;13.80;8.40;;;16.80;92.00;;;;;;5069088;28;20071;-71
2023/08/09 06:13:41;;;;;;;12.05;7.70;;;16.90;91.90;;;;;;5067356;28;20480;-71
2023/08/09 06:16:07;;;;;;;13.60;8.82;;;16.90;91.90;;;;;;5064317;28;20067;-71
2023/08/09 06:18:32;;;;;;;11.27;7.95;;;17.00;91.90;;;;;;5066721;28;20075;-71
2023/08/09 06:20:58;;;;;;;10.60;7.03;;;17.00;91.90;;;;;;5061388;28;20044;-72
2023/08/09 06:23:24;;;;;;;8.88;6.18;;;17.00;91.80;;;;;;5060506;28;20348;-72
2023/08/09 06:25:50;;;;;;;10.30;6.38;;;17.00;91.80;;;;;;5072491;28;20195;-71
2023/08/09 06:28:17;;;;;;;10.85;7.05;;;17.00;91.70;;;;;;5059546;28;20426;-71
2023/08/09 06:30:43;;;;;;;11.32;6.97;;;17.10;91.70;;;;;;5065169;28;20028;-71
2023/08/09 06:33:09;;;;;;;13.65;7.53;;;17.10;91.80;;;;;;5063919;28;20024;-71
2023/08/09 06:35:35;;;;;;;10.50;6.75;;;17.10;91.80;;;;;;5054359;28;20447;-71
2023/08/09 06:38:00;;;;;;;9.23;6.10;;;17.10;91.70;;;;;;5069245;28;20027;-71
2023/08/09 06:40:26;;;;;;;10.98;7.32;;;17.10;91.70;;;;;;5063857;28;20437;-71
2023/08/09 06:42:52;;;;;;;9.90;6.40;;;17.10;91.70;;;;;;5053169;28;20136;-71
2023/08/09 06:45:18;;;;;;;8.05;5.60;;;17.10;91.70;;;;;;5062091;28;20095;-71
2023/08/09 06:47:44;;;;;;;6.85;4.88;;;17.10;91.70;;;;;;5070982;28;20034;-70
2023/08/09 06:50:09;;;;;;;8.50;5.63;;;17.10;91.70;;;;;;5067791;28;20029;-71
2023/08/09 06:52:36;;;;;;;9.30;6.60;;;17.20;91.70;;;;;;5062143;28;20050;-71
2023/08/09 06:55:03;;;;;;;9.85;5.80;;;17.30;91.60;;;;;;5049410;28;20029;-71
2023/08/09 06:57:28;;;;;;;9.48;6.38;;;17.40;91.50;;;;;;5063078;28;20039;-71
2023/08/09 06:59:54;;;;;;;8.75;5.30;;;17.50;91.20;;;;;;5073724;28;20028;-71
2023/08/09 07:02:20;;;;;;;9.07;5.60;;;17.60;91.10;;;;;;5069970;28;20074;-71
2023/08/09 07:04:46;;;;;;;8.70;5.80;;;17.60;91.00;;;;;;5074436;28;20066;-71
2023/08/09 07:07:12;;;;;;;8.98;5.95;;;17.70;91.00;;;;;;5064558;28;20025;-71
2023/08/09 07:09:38;;;;;;;6.70;5.10;;;17.80;91.00;;;;;;5063055;28;20642;-71
2023/08/09 07:12:04;;;;;;;8.23;5.28;;;18.00;90.70;;;;;;5060982;28;20024;-71
2023/08/09 07:14:30;;;;;;;9.02;5.90;;;17.90;90.50;;;;;;5059057;28;20025;-71
2023/08/09 07:16:55;;;;;;;7.95;5.38;;;17.90;90.60;;;;;;5060375;28;20093;-70
2023/08/09 07:19:21;;;;;;;9.82;6.00;;;17.90;90.60;;;;;;5060481;28;20021;-71
2023/08/09 07:21:47;;;;;;;8.38;6.00;;;18.00;90.50;;;;;;5058799;28;20020;-70
2023/08/09 07:24:13;;;;;;;9.75;6.68;;;17.90;90.50;;;;;;5060784;28;20072;-70
2023/08/09 07:26:38;;;;;;;9.15;6.03;;;17.90;90.60;;;;;;5059909;28;20013;-71
2023/08/09 07:29:04;;;;;;;8.82;5.82;;;17.90;90.70;;;;;;5059413;28;20463;-71
2023/08/09 07:31:30;;;;;;;8.68;5.57;;;18.00;90.70;;;;;;5059011;28;20590;-71
2023/08/09 07:33:56;;;;;;;9.68;6.40;;;18.20;90.50;;;;;;5060206;28;20016;-71
2023/08/09 07:36:21;;;;;;;9.85;7.00;;;18.50;90.40;;;;;;5060406;28;20017;-72
2023/08/09 07:38:47;;;;;;;9.13;5.57;;;18.50;90.10;;;;;;5058709;28;20060;-71
2023/08/09 07:41:13;;;;;;;11.20;6.20;;;18.60;90.10;;;;;;5059798;28;20384;-71
2023/08/09 07:43:38;;;;;;;10.02;6.78;;;18.60;90.10;;;;;;5061118;28;20024;-71
2023/08/09 07:46:05;;;;;;;8.55;5.90;;;18.60;90.10;;;;;;5058986;28;20096;-71
2023/08/09 07:48:32;;;;;;;10.07;6.47;;;18.60;90.00;;;;;;5059297;28;20025;-71
2023/08/09 07:50:58;;;;;;;8.00;5.88;;;18.70;90.00;;;;;;5058297;28;20548;-71
2023/08/09 07:53:23;;;;;;;7.90;5.22;;;18.80;89.80;;;;;;5058957;28;20029;-71
2023/08/09 07:55:49;;;;;;;7.35;5.60;;;18.80;89.70;;;;;;5060175;28;20467;-71
2023/08/09 07:58:15;;;;;;;7.22;5.38;;;18.80;89.60;;;;;;5058976;28;20400;-71
2023/08/09 08:00:41;;;;;;;8.00;5.28;;;18.80;89.40;;;;;;5059060;28;20013;-71
2023/08/09 08:03:07;;;;;;;7.65;4.82;;;18.80;89.40;;;;;;5060348;28;20028;-70
2023/08/09 08:05:32;;;;;;;6.47;4.78;;;18.80;89.40;;;;;;5063747;28;20025;-71
2023/08/09 08:08:00;;;;;;;6.82;4.68;;;18.70;89.40;;;;;;5058710;28;20494;-71
2023/08/09 08:10:26;;;;;;;6.15;4.95;;;18.70;89.50;;;;;;5062165;28;20450;-71
2023/08/09 08:12:51;;;;;;;6.05;4.72;;;18.80;89.50;;;;;;5067418;28;20029;-71
2023/08/09 08:15:18;;;;;;;6.97;4.85;;;18.80;89.30;;;;;;5058532;28;20031;-71
2023/08/09 08:17:46;;;;;;;5.43;3.90;;;18.80;89.20;;;;;;5059286;28;20028;-71
2023/08/09 08:20:15;;;;;;;5.95;4.57;;;18.90;89.20;;;;;;5061156;28;20016;-71
2023/08/09 08:22:43;;;;;;;6.10;4.47;;;19.10;88.90;;;;;;5064627;28;20116;-70
2023/08/09 08:25:10;;;;;;;7.00;4.38;;;19.20;88.30;;;;;;5067650;28;20035;-71
2023/08/09 08:27:36;;;;;;;6.03;4.65;;;19.10;87.90;;;;;;5069589;28;20020;-71
2023/08/09 08:30:04;;;;;;;6.40;4.75;;;19.10;87.80;;;;;;5069781;28;20035;-71
2023/08/09 08:32:30;;;;;;;5.40;4.30;;;19.20;87.90;;;;;;5079321;28;20066;-71
2023/08/09 08:34:56;;;;;;;6.07;4.63;;;19.20;87.70;;;;;;5089333;28;20406;-71
2023/08/09 08:37:22;;;;;;;6.40;5.45;;;19.40;87.40;;;;;;5084780;28;20466;-68
2023/08/09 08:39:48;;;;;;;7.82;5.53;;;19.40;87.20;;;;;;5058980;28;20025;-70
2023/08/09 08:42:14;;;;;;;7.97;4.53;;;19.60;86.90;;;;;;5063951;28;20024;-69
2023/08/09 08:44:40;;;;;;;5.15;4.43;;;19.70;86.40;;;;;;5067333;28;20021;-70
2023/08/09 08:47:06;;;;;;;5.68;4.95;;;19.70;86.00;;;;;;5048204;28;20028;-70
2023/08/09 08:49:34;;;;;;;6.03;4.57;;;19.80;85.60;;;;;;5054088;28;20025;-70
2023/08/09 08:52:06;;;;;;;5.10;3.85;;;20.00;85.30;;;;;;5064884;28;20025;-70
2023/08/09 08:54:32;;;;;;;5.53;4.22;;;20.20;84.90;;;;;;5066943;28;20111;-70
2023/08/09 08:56:58;;;;;;;6.65;4.10;;;20.30;84.10;;;;;;5049879;28;20036;-71
2023/08/09 08:59:24;;;;;;;5.15;4.07;;;20.40;83.90;;;;;;5065911;28;20029;-70
2023/08/09 09:01:50;;;;;;;4.70;3.67;;;20.60;83.60;;;;;;5064314;28;20086;-70
2023/08/09 09:04:15;;;;;;;4.88;4.07;;;20.70;83.00;;;;;;5071381;28;20056;-70
2023/08/09 09:06:41;;;;;;;5.28;3.80;;;20.70;82.60;;;;;;5075328;28;20021;-70
2023/08/09 09:09:13;;;;;;;4.43;3.58;;;20.70;82.50;;;;;;5093048;28;20077;-70
2023/08/09 09:11:39;;;;;;;3.78;2.92;;;20.90;82.20;;;;;;5079028;28;20017;-70
2023/08/09 09:14:15;;;;;;;4.25;2.95;;;21.00;81.00;;;;;;5071409;28;20020;-70
2023/08/09 09:16:42;;;;;;;4.30;3.00;;;20.90;80.50;;;;;;5065268;28;20031;-70
2023/08/09 09:19:09;;;;;;;2.80;2.30;;;20.90;80.30;;;;;;5074626;28;20028;-70
2023/08/09 09:21:36;;;;;;;3.00;2.50;;;21.00;79.60;;;;;;5069664;28;20097;-69
2023/08/09 09:24:05;;;;;;;3.60;2.50;;;21.10;79.00;;;;;;5071737;28;20028;-69
2023/08/09 09:26:31;;;;;;;3.20;2.67;;;21.30;78.40;;;;;;5076059;28;20403;-70
2023/08/09 09:28:57;;;;;;;3.30;2.50;;;21.40;78.00;;;;;;5072159;28;20024;-69
2023/08/09 09:31:38;;;;;;;3.67;2.47;;;21.50;77.20;;;;;;5069795;28;20039;-69
2023/08/09 09:34:06;;;;;;;;;;;21.60;76.60;;;;;;5067671;28;20016;-69
2023/08/09 09:36:32;;;;;;;5.88;3.17;;;21.70;76.00;;;;;;5072463;28;20359;-70
2023/08/09 09:38:59;;;;;;;3.10;2.58;;;21.60;74.40;;;;;;5067268;28;20033;-69
2023/08/09 09:41:25;;;;;;;3.25;2.60;;;21.60;74.00;;;;;;5073104;28;20021;-70
2023/08/09 09:43:51;;;;;;;4.30;3.00;;;21.60;73.90;;;;;;5069791;28;20032;-70
2023/08/09 09:46:17;;;;;;;3.72;2.47;;;21.70;73.80;;;;;;5069266;28;20476;-70
2023/08/09 09:48:47;;;;;;;3.30;2.70;;;21.70;73.80;;;;;;5070639;28;20522;-70
2023/08/09 09:51:15;;;;;;;5.43;3.00;;;21.70;73.40;;;;;;5067383;28;20059;-70
2023/08/09 09:53:42;;;;;;;4.15;3.08;;;21.60;73.20;;;;;;5070347;28;20020;-70
2023/08/09 09:56:07;;;;;;;5.18;2.92;;;21.60;72.90;;;;;;5070534;28;20031;-69
2023/08/09 09:58:33;;;;;;;4.47;2.80;;;21.40;72.60;;;;;;5069576;28;20033;-70
2023/08/09 10:01:01;;;;;;;4.32;3.20;;;21.40;73.20;;;;;;5064823;28;20448;-71
2023/08/09 10:03:30;;;;;;;3.92;2.95;;;21.40;73.20;;;;;;5062278;28;20028;-70
2023/08/09 10:05:57;;;;;;;4.72;3.00;;;21.60;73.30;;;;;;5069124;28;20103;-71
2023/08/09 10:08:27;;;;;;;4.35;3.28;;;21.60;72.90;;;;;;5068027;28;20019;-71
2023/08/09 10:10:54;;;;;;;3.90;3.05;;;21.50;72.50;;;;;;5071351;28;20029;-69
2023/08/09 10:13:22;;;;;;;3.88;2.65;;;21.70;72.50;;;;;;5069485;28;20024;-70
2023/08/09 10:15:54;;;;;;;4.07;3.00;;;21.80;72.20;;;;;;5067800;28;20056;-70
2023/08/09 10:18:35;;;;;;;4.13;2.38;;;21.90;71.80;;;;;;5066497;28;20024;-70
2023/08/09 10:21:02;;;;;;;3.17;2.33;;;22.00;71.90;;;;;;5067996;28;20017;-70
2023/08/09 10:23:29;;;;;;;3.40;2.60;;;22.00;71.90;;;;;;5070043;28;20386;-70
2023/08/09 10:25:55;;;;;;;5.20;2.75;;;22.00;71.80;;;;;;5068390;28;20472;-70
2023/08/09 10:28:40;;;;;;;4.38;2.70;;;21.80;71.70;;;;;;5068470;28;20033;-70
2023/08/09 10:31:06;;;;;;;4.35;2.50;;;21.70;71.20;;;;;;5070108;28;20028;-70
2023/08/09 10:33:32;;;;;;;4.47;2.17;;;21.50;71.50;;;;;;5069033;28;20479;-71
2023/08/09 10:35:58;;;;;;;3.67;2.00;;;21.30;71.80;;;;;;5069333;28;20029;-71
2023/08/09 10:38:32;;;;;;;2.25;1.63;;;21.20;71.90;;;;;;5068523;28;20020;-69
2023/08/09 10:41:06;;;;;;;3.55;2.30;;;21.10;72.30;;;;;;5068966;28;20051;-70
2023/08/09 10:43:34;;;;;;;3.03;2.13;;;21.00;71.50;;;;;;5067373;28;20076;-70
2023/08/09 10:46:20;;;;;;;2.47;1.50;;;20.80;71.50;;;;;;5066222;28;20043;-70
2023/08/09 10:48:59;;;;;;;3.42;1.75;;;20.90;72.10;;;;;;5047536;28;20029;-70
2023/08/09 10:51:25;;;;;;;4.03;1.98;;;21.00;71.90;;;;;;5067748;28;20029;-69
2023/08/09 10:54:05;;;;;;;3.53;2.22;;;21.10;71.60;;;;;;5068097;28;20096;-70
2023/08/09 10:56:41;;;;;;;3.38;2.58;;;21.20;71.00;;;;;;5075781;28;20398;-70
2023/08/09 10:59:27;;;;;;;2.78;1.90;;;21.40;70.50;;;;;;5068335;28;20034;-71
2023/08/09 11:01:54;;;;;;;3.75;2.33;;;21.40;70.30;;;;;;5067439;28;20048;-70
2023/08/09 11:04:20;;;;;;;3.35;2.20;;;21.60;70.20;;;;;;5069041;28;20508;-70
2023/08/09 11:06:48;;;;;;;4.00;2.80;;;21.70;70.10;;;;;;5065696;28;20032;-70
2023/08/09 11:09:17;;;;;;;3.65;2.70;;;21.70;69.10;;;;;;5071462;28;20085;-70
2023/08/09 11:11:45;;;;;;;2.55;2.30;;;21.70;68.90;;;;;;5072937;28;20086;-70
2023/08/09 11:14:13;;;;;;;2.92;2.30;;;21.70;69.30;;;;;;5070790;28;20044;-70
2023/08/09 11:16:39;;;;;;;3.40;2.10;;;21.90;69.70;;;;;;5070577;28;20499;-70
2023/08/09 11:19:08;;;;;;;3.95;2.65;;;22.00;69.80;;;;;;5067053;28;20059;-70
2023/08/09 11:21:56;;;;;;;4.07;2.90;;;22.10;69.30;;;;;;5065994;28;20024;-70
2023/08/09 11:24:24;;;;;;;3.33;2.55;;;22.00;69.00;;;;;;5066738;28;20049;-71
2023/08/09 11:26:55;;;;;;;3.28;2.90;;;21.80;69.30;;;;;;5067370;28;20032;-70
2023/08/09 11:29:23;;;;;;;3.58;3.08;;;21.80;69.60;;;;;;5068666;28;20028;-71
2023/08/09 11:31:51;;;;;;;4.20;2.80;;;21.80;69.90;;;;;;5069155;28;20461;-70
2023/08/09 11:34:18;;;;;;;5.18;3.05;;;21.90;70.10;;;;;;5071506;28;20096;-71
2023/08/09 11:36:46;;;;;;;2.85;2.55;;;22.00;70.20;;;;;;5068515;28;20055;-71
2023/08/09 11:39:13;;;;;;;3.20;2.60;;;22.10;70.20;;;;;;5068445;28;20491;-71
2023/08/09 11:41:59;;;;;;;3.63;2.83;;;22.20;70.20;;;;;;5069231;28;20673;-71
2023/08/09 11:44:36;;;;;;;3.22;2.88;;;22.30;70.10;;;;;;5062053;28;20032;-70
2023/08/09 11:47:03;;;;;;;2.92;2.53;;;22.30;70.00;;;;;;5071689;28;20078;-71
2023/08/09 11:49:30;;;;;;;4.65;3.53;;;22.30;69.70;;;;;;5069491;28;20028;-70
2023/08/09 11:51:56;;;;;;;5.30;3.20;;;22.40;69.50;;;;;;5071694;28;20029;-72
2023/08/09 11:54:23;;;;;;;4.47;3.35;;;22.30;69.10;;;;;;5066691;28;20016;-71
2023/08/09 11:56:50;;;;;;;5.50;2.97;;;22.40;69.10;;;;;;5067517;28;20116;-71
2023/08/09 11:59:18;;;;;;;4.53;3.00;;;22.50;69.20;;;;;;5071395;28;20023;-71
2023/08/09 12:01:51;;;;;;;4.85;3.05;;;22.60;68.80;;;;;;5068404;28;20027;-71
2023/08/09 12:04:22;;;;;;;4.50;2.60;;;22.80;67.80;;;;;;5066682;28;20111;-71
2023/08/09 12:06:54;;;;;;;2.58;2.10;;;22.80;67.70;;;;;;5067107;28;20028;-70
2023/08/09 12:09:39;;;;;;;3.38;2.28;;;23.10;67.60;;;;;;5067029;28;20433;-70
2023/08/09 12:12:10;;;;;;;3.55;2.00;;;23.20;67.10;;;;;;5070662;28;20012;-71
2023/08/09 12:14:41;;;;;;;2.28;1.90;;;23.30;67.20;;;;;;5065125;28;20029;-70
2023/08/09 12:17:16;;;;;;;2.40;2.10;;;23.20;66.80;;;;;;5068699;28;20499;-71
2023/08/09 12:19:42;;;;;;;4.30;2.08;;;23.20;66.80;;;;;;5070318;28;20114;-71
2023/08/09 12:22:08;;;;;;;2.10;1.75;;;23.30;66.50;;;;;;5071513;28;20107;-70
2023/08/09 12:24:33;;;;;;;2.20;1.90;;;23.50;66.90;;;;;;5070702;28;20021;-71
2023/08/09 12:26:59;;;;;;;3.17;1.80;;;23.60;65.20;;;;;;5068084;28;20490;-71
2023/08/09 12:29:25;;;;;;;2.95;2.22;;;23.80;64.80;;;;;;5070913;28;20086;-71
2023/08/09 12:31:51;;;;;;;2.47;1.60;;;23.90;64.30;;;;;;5065817;28;20035;-71
2023/08/09 12:34:18;;;;;;;1.90;1.70;;;23.90;63.60;;;;;;5068201;28;20071;-71
2023/08/09 12:36:43;;;;;;;2.40;1.70;;;23.80;63.50;;;;;;5071800;28;20074;-70
2023/08/09 12:39:10;;;;;;;3.40;1.77;;;23.70;63.40;;;;;;5072404;28;20024;-70
2023/08/09 12:41:37;;;;;;;2.28;1.42;;;23.70;63.40;;;;;;5075503;28;20107;-71
2023/08/09 12:44:03;;;;;;;2.60;1.50;;;23.50;63.60;;;;;;5074828;28;20643;-71
2023/08/09 12:46:28;;;;;;;2.70;1.70;;;23.40;63.70;;;;;;5072239;28;20124;-71